Liberty Center, Iowa
Current Conditions -  °F | °C
As of 6:15 PM on Thursday 27 Nov 2014 (Local Time) from KI75 Reporting Station
Broken Clouds Broken Clouds  
Wind Chill:   Ceiling: 10000
Heat Index: 16°   Visibility: 10mi
Dew Point:   Wind: 7mph
Humidity: 67%   Direction: 100°E
Pressure: 30.38"   Gusts: NA
Location:  41.2°N, 93.5°W
Report Text: KI75 280015Z AUTO 10006KT 10SM BKN100 M09/M14 A3038 RMK AO2 T10881140
Loading
Personal Weather Stations






























Interactive Weather Map New forecast layout! Learn more

10-Day Weather Forecast

Advertisements
Track Severe Weather on mobile